Ana Sayfa
METAR-TAF:

METAR-TAF

Havaalanları :

Shenandoah Valley Regional Airport

Staunton / Waynesboro / Harrisonburg, Virginia, Amerika Birleşik Devletleri

Enlem: 38-16N, Boylam: 078-54W, yükseklik: 366 m

Güncel hava durumu gözlemi

Rapor saat 22:55 UTC de 29 dakika önce yapıldı.
Rüzgar kuzey/kuzeydoğudan 7 kt
Sıcaklık 11°C
Nem 100%
Basınç 1002 hPa
Görüş mesafesi: 11.3 km
500 ft yükseklikte çok bulutlu
hafif yağmur

METAR: KSHD 292255Z AUTO 02007KT 7SM -RA OVC005 11/11 A2959 RMK AO2 P0005 T01120110

Saat: 19:24 (23:24 UTC)


TAF: eksik

4.000'den fazla havaalanı için hava durumu gözlemleri ve tahminleri (METAR ve TAF raporları).

Kullanılabilir istasyonlar harita üzerinde sarı ve kırmızı noktalarla gösterilir.

İstasyonun adını görmek için fareyi noktanın üzerinde gezdirin.

Sonrasında hava gözlem ve tahminlerini görmek için tıklayın.

Haritayı değiştirmek için: yaklaştırmak için siyah artı işaretli yeşil düğmeye ve uzaklaştırmak için de eksi işaretli düğmeye hızla tıklayın; bitişik haritalar için yeşil okları kullanın.


METAR-TAF: